createdAt,value
2019-04-22T00:02:22.724Z,97292.52
2019-04-22T00:05:04.762Z,97292.18
2019-04-22T00:07:48.256Z,97291.33
2019-04-22T00:10:26.123Z,97288.78
2019-04-22T00:12:52.938Z,97288.78
2019-04-22T00:15:20.255Z,97283.03
2019-04-22T00:18:11.616Z,97280.68
2019-04-22T00:20:31.027Z,97280.68
2019-04-22T00:22:59.428Z,97275.11
2019-04-22T00:25:36.618Z,97275.11
2019-04-22T00:28:08.892Z,97268.69
2019-04-22T00:30:34.295Z,97269.88
2019-04-22T00:33:11.671Z,97270.91
2019-04-22T00:35:41.609Z,97266.85
2019-04-22T00:38:17.668Z,97263.48
2019-04-22T00:43:21.111Z,97255.28
2019-04-22T00:45:49.278Z,97255.28
2019-04-22T00:51:05.812Z,97249.88
2019-04-22T00:53:35.422Z,97249.02
2019-04-22T00:56:08.886Z,97250.81
2019-04-22T00:58:37.927Z,97250.81
2019-04-22T01:01:14.380Z,97252.97
2019-04-22T01:06:17.307Z,97239.13
2019-04-22T01:08:53.638Z,97235.94
2019-04-22T01:11:24.752Z,97241.00
2019-04-22T01:13:52.833Z,97235.09
2019-04-22T01:16:22.705Z,97229.67
2019-04-22T01:18:49.080Z,97228.17
2019-04-22T01:21:28.786Z,97228.48
2019-04-22T01:23:52.120Z,97230.68
2019-04-22T01:26:22.931Z,97231.19
2019-04-22T01:28:50.104Z,97226.98
2019-04-22T01:31:15.350Z,97217.23
2019-04-22T01:33:47.704Z,97212.64
2019-04-22T01:36:33.919Z,97215.84
2019-04-22T01:39:02.362Z,97215.84
2019-04-22T01:41:48.439Z,97205.56
2019-04-22T01:44:22.628Z,97205.56
2019-04-22T01:46:47.741Z,97203.00
2019-04-22T01:49:19.223Z,97203.69
2019-04-22T01:54:26.657Z,97195.23
2019-04-22T01:59:15.622Z,97192.32
2019-04-22T02:04:32.486Z,97188.13
2019-04-22T02:06:57.822Z,97188.13
2019-04-22T02:09:31.377Z,97185.43
2019-04-22T02:12:00.180Z,97183.71
2019-04-22T02:14:34.111Z,97183.71
2019-04-22T02:19:35.742Z,97174.59
2019-04-22T02:22:12.898Z,97171.41
2019-04-22T02:27:23.954Z,97171.06
2019-04-22T02:32:28.244Z,97167.17
2019-04-22T02:35:02.101Z,97164.83
2019-04-22T02:37:23.516Z,97165.52
2019-04-22T02:39:59.011Z,97165.52
2019-04-22T02:42:24.635Z,97166.64
2019-04-22T02:44:53.282Z,97159.94
2019-04-22T02:50:07.443Z,97165.33
2019-04-22T02:52:37.078Z,97160.45
2019-04-22T02:55:11.597Z,97160.76
2019-04-22T02:57:47.431Z,97154.38
2019-04-22T03:00:12.231Z,97154.38
2019-04-22T03:05:17.764Z,97146.61
2019-04-22T03:07:50.669Z,97141.16
2019-04-22T03:10:26.713Z,97140.50
2019-04-22T03:12:48.989Z,97140.50
2019-04-22T03:15:17.363Z,97137.43
2019-04-22T03:17:51.641Z,97136.09
2019-04-22T03:20:17.832Z,97136.09
2019-04-22T03:23:00.152Z,97128.13
2019-04-22T03:25:51.755Z,97127.63
2019-04-22T03:28:14.433Z,97122.75
2019-04-22T03:30:50.524Z,97122.75
2019-04-22T03:33:11.745Z,97122.06
2019-04-22T03:37:55.946Z,97114.30
2019-04-22T03:40:36.754Z,97117.33
2019-04-22T03:48:09.307Z,97112.91
2019-04-22T03:51:03.258Z,97109.72
2019-04-22T03:55:43.393Z,97105.45
2019-04-22T03:58:01.811Z,97102.30
2019-04-22T04:00:49.820Z,97102.30
2019-04-22T04:03:20.753Z,97104.10
2019-04-22T04:05:54.236Z,97104.10
2019-04-22T04:13:23.360Z,97096.50
2019-04-22T04:15:55.736Z,97096.50
2019-04-22T04:18:39.275Z,97090.80
2019-04-22T04:26:17.667Z,97078.67
2019-04-22T04:31:22.275Z,97077.17
2019-04-22T04:33:50.924Z,97079.50
2019-04-22T04:36:11.546Z,97074.09
2019-04-22T04:38:58.295Z,97073.75
2019-04-22T04:41:24.923Z,97076.66
2019-04-22T04:44:03.689Z,97076.28
2019-04-22T04:51:33.017Z,97078.50
2019-04-22T04:54:05.850Z,97072.09
2019-04-22T04:59:19.469Z,97075.32
2019-04-22T05:01:44.974Z,97077.20
2019-04-22T05:06:52.092Z,97071.78
2019-04-22T05:09:15.155Z,97073.67
2019-04-22T05:12:01.755Z,97068.67
2019-04-22T05:14:14.887Z,97075.44
2019-04-22T05:19:15.794Z,97071.83
2019-04-22T05:21:39.949Z,97064.28
2019-04-22T05:24:19.828Z,97064.28
2019-04-22T05:26:50.627Z,97062.30
2019-04-22T05:29:19.657Z,97062.30
2019-04-22T05:34:26.461Z,97058.30
2019-04-22T05:36:55.392Z,97061.84
2019-04-22T05:39:22.592Z,97058.34
2019-04-22T05:41:59.285Z,97058.34
2019-04-22T05:44:29.485Z,97051.30
2019-04-22T05:47:01.177Z,97052.83
2019-04-22T05:49:47.763Z,97052.83
2019-04-22T05:52:09.672Z,97043.06
2019-04-22T05:54:41.107Z,97042.89
2019-04-22T05:57:14.384Z,97041.20
2019-04-22T05:59:48.742Z,97042.72
2019-04-22T06:04:44.920Z,97043.70
2019-04-22T06:07:14.510Z,97043.70
2019-04-22T06:09:53.283Z,97046.73
2019-04-22T06:12:17.189Z,97045.50
2019-04-22T06:14:54.260Z,97045.50
2019-04-22T06:17:24.800Z,97046.16
2019-04-22T06:19:57.663Z,97043.93
2019-04-22T06:22:38.707Z,97043.93
2019-04-22T06:25:01.273Z,97039.81
2019-04-22T06:27:34.047Z,97039.81
2019-04-22T06:30:04.943Z,97041.79
2019-04-22T06:32:31.441Z,97035.71
2019-04-22T06:35:18.505Z,97039.03
2019-04-22T06:37:43.351Z,97041.47
2019-04-22T06:40:16.412Z,97041.47
2019-04-22T06:42:44.114Z,97042.20
2019-04-22T06:45:18.877Z,97042.20
2019-04-22T06:47:59.151Z,97038.76
2019-04-22T06:50:32.861Z,97038.95
2019-04-22T06:52:52.299Z,97037.02
2019-04-22T06:55:23.281Z,97037.02
2019-04-22T06:57:53.004Z,97040.96
2019-04-22T07:03:26.919Z,97037.34
2019-04-22T07:05:28.051Z,97038.88
2019-04-22T07:08:04.409Z,97038.88
2019-04-22T07:10:45.324Z,97038.86
2019-04-22T07:13:01.389Z,97037.57
2019-04-22T07:15:46.552Z,97025.99
2019-04-22T07:18:11.428Z,97032.48
2019-04-22T07:23:13.395Z,97022.75
2019-04-22T07:25:41.183Z,97021.69
2019-04-22T07:28:17.742Z,97021.69
2019-04-22T07:30:44.631Z,97022.89
2019-04-22T07:33:31.192Z,97024.57
2019-04-22T07:36:12.532Z,97022.78
2019-04-22T07:40:56.323Z,97015.92
2019-04-22T07:43:53.075Z,97015.92
2019-04-22T07:46:06.998Z,97020.83
2019-04-22T07:48:37.639Z,97013.99
2019-04-22T07:51:07.213Z,97019.70
2019-04-22T07:53:45.553Z,97014.37
2019-04-22T07:56:12.403Z,97016.08
2019-04-22T07:58:42.071Z,97011.77
2019-04-22T08:04:05.478Z,97005.59
2019-04-22T08:06:24.664Z,96999.45
2019-04-22T08:08:55.601Z,96997.42
2019-04-22T08:14:01.558Z,96994.34
2019-04-22T08:16:28.444Z,96991.80
2019-04-22T08:19:04.129Z,96988.69
2019-04-22T08:21:29.860Z,96988.69
2019-04-22T08:24:06.575Z,96986.72
2019-04-22T08:26:41.149Z,96979.88
2019-04-22T08:29:27.682Z,96986.80
2019-04-22T08:31:40.053Z,96981.25
2019-04-22T08:34:13.711Z,96980.81
2019-04-22T08:37:12.371Z,96985.25
2019-04-22T08:39:21.751Z,96978.77
2019-04-22T08:41:44.155Z,96978.77
2019-04-22T08:44:27.850Z,96975.73
2019-04-22T08:46:56.202Z,96971.41
2019-04-22T08:49:30.690Z,96971.41
2019-04-22T08:52:01.309Z,96961.61
2019-04-22T08:54:31.255Z,96965.48
2019-04-22T08:57:06.528Z,96965.27
2019-04-22T08:59:27.965Z,96965.70
2019-04-22T09:02:13.377Z,96960.16
2019-04-22T09:04:39.126Z,96961.84
2019-04-22T09:09:44.776Z,96954.28
2019-04-22T09:12:32.996Z,96955.43
2019-04-22T09:14:47.612Z,96955.43
2019-04-22T09:17:52.470Z,96955.75
2019-04-22T09:20:20.418Z,96954.38
2019-04-22T09:22:56.806Z,96946.41
2019-04-22T09:25:34.543Z,96944.20
2019-04-22T09:28:14.879Z,96944.41
2019-04-22T09:33:25.802Z,96932.39
2019-04-22T09:40:58.453Z,96929.17
2019-04-22T09:43:32.232Z,96932.88
2019-04-22T09:45:57.505Z,96927.77
2019-04-22T09:51:05.380Z,96920.72
2019-04-22T09:53:46.783Z,96911.39
2019-04-22T09:56:18.115Z,96911.39
2019-04-22T09:58:44.856Z,96909.57
2019-04-22T10:01:26.164Z,96894.87
2019-04-22T10:03:56.221Z,96893.69
2019-04-22T10:06:33.583Z,96893.69
2019-04-22T10:09:12.701Z,96883.78
2019-04-22T10:16:35.418Z,96878.47
2019-04-22T10:19:01.003Z,96875.05
2019-04-22T10:21:40.691Z,96863.34
2019-04-22T10:24:03.441Z,96863.34
2019-04-22T10:26:39.096Z,96848.83
2019-04-22T10:29:13.679Z,96849.94
2019-04-22T10:31:43.629Z,96848.48
2019-04-22T10:33:57.956Z,96848.48
2019-04-22T10:36:17.175Z,96845.07
2019-04-22T10:38:48.573Z,96841.88
2019-04-22T10:41:20.695Z,96839.80
2019-04-22T10:43:51.034Z,96833.18
2019-04-22T10:46:21.906Z,96823.54
2019-04-22T10:48:55.838Z,96823.54
2019-04-22T10:51:28.663Z,96822.55
2019-04-22T10:53:59.635Z,96822.55
2019-04-22T10:56:32.760Z,96812.33
2019-04-22T10:59:02.596Z,96815.81
2019-04-22T11:01:33.868Z,96801.85
2019-04-22T11:04:03.428Z,96803.31
2019-04-22T11:06:38.825Z,96789.05
2019-04-22T11:09:06.739Z,96789.05
2019-04-22T11:11:46.827Z,96787.59
2019-04-22T11:14:08.718Z,96781.91
2019-04-22T11:16:39.485Z,96781.69
2019-04-22T11:19:17.348Z,96784.95
2019-04-22T11:22:02.650Z,96771.50
2019-04-22T11:24:20.981Z,96766.19
2019-04-22T11:26:58.777Z,96754.33
2019-04-22T11:29:29.883Z,96759.63
2019-04-22T11:32:00.225Z,96748.91
2019-04-22T11:34:30.987Z,96746.99
2019-04-22T11:37:01.116Z,96746.99
2019-04-22T11:39:36.485Z,96742.39
2019-04-22T11:42:07.895Z,96734.52
2019-04-22T11:44:39.167Z,96740.44
2019-04-22T11:49:43.795Z,96726.19
2019-04-22T11:52:16.415Z,96729.49
2019-04-22T11:54:46.501Z,96724.73
2019-04-22T11:57:17.265Z,96720.86
2019-04-22T11:59:49.035Z,96712.19
2019-04-22T12:02:23.299Z,96704.98
2019-04-22T12:04:53.927Z,96704.98
2019-04-22T12:07:23.735Z,96702.94
2019-04-22T12:09:55.720Z,96693.14
2019-04-22T12:12:27.799Z,96699.11
2019-04-22T12:15:00.745Z,96682.92
2019-04-22T12:17:31.883Z,96684.86
2019-04-22T12:20:05.590Z,96676.88
2019-04-22T12:22:35.667Z,96676.58
2019-04-22T12:25:06.440Z,96672.55
2019-04-22T12:27:45.441Z,96662.97
2019-04-22T12:30:16.845Z,96657.03
2019-04-22T12:32:48.560Z,96659.81
2019-04-22T12:35:22.351Z,96660.97
2019-04-22T12:37:58.747Z,96646.16
2019-04-22T12:40:32.738Z,96647.52
2019-04-22T12:42:57.640Z,96641.48
2019-04-22T12:45:27.335Z,96639.06
2019-04-22T12:47:57.938Z,96637.16
2019-04-22T12:50:32.927Z,96642.02
2019-04-22T12:53:03.657Z,96628.49
2019-04-22T12:55:32.402Z,96629.86
2019-04-22T12:58:05.469Z,96627.07
2019-04-22T13:00:36.624Z,96618.77
2019-04-22T13:03:11.683Z,96618.77
2019-04-22T13:05:45.134Z,96611.75
2019-04-22T13:08:15.812Z,96611.75
2019-04-22T13:10:59.333Z,96601.73
2019-04-22T13:13:25.092Z,96601.73
2019-04-22T13:15:59.213Z,96599.13
2019-04-22T13:18:42.777Z,96595.41
2019-04-22T13:21:15.003Z,96595.28
2019-04-22T13:23:44.668Z,96587.54
2019-04-22T13:26:15.231Z,96584.24
2019-04-22T13:28:45.203Z,96585.87
2019-04-22T13:31:16.037Z,96582.09
2019-04-22T13:33:51.283Z,96578.59
2019-04-22T13:36:22.718Z,96570.74
2019-04-22T13:38:53.390Z,96555.64
2019-04-22T13:41:33.015Z,96560.81
2019-04-22T13:43:58.178Z,96557.51
2019-04-22T13:46:31.719Z,96557.51
2019-04-22T13:49:38.266Z,96557.51
2019-04-22T13:52:20.690Z,96557.20
2019-04-22T13:54:48.951Z,96547.08
2019-04-22T13:57:19.837Z,96544.52
2019-04-22T13:59:36.878Z,96544.47
2019-04-22T14:02:30.718Z,96544.47
2019-04-22T14:05:01.085Z,96534.34
2019-04-22T14:07:37.032Z,96533.84
2019-04-22T14:10:08.710Z,96521.39
2019-04-22T14:12:42.948Z,96521.39
2019-04-22T14:15:13.821Z,96519.83
2019-04-22T14:17:45.269Z,96516.05
2019-04-22T14:20:15.740Z,96510.62
2019-04-22T14:22:46.304Z,96513.07
2019-04-22T14:25:16.718Z,96505.91
2019-04-22T14:27:54.683Z,96489.21
2019-04-22T14:30:20.881Z,96489.21
2019-04-22T14:32:55.925Z,96487.78
2019-04-22T14:35:29.062Z,96487.78
2019-04-22T14:37:58.590Z,96491.75
2019-04-22T14:40:32.417Z,96484.34
2019-04-22T14:43:25.349Z,96474.19
2019-04-22T14:48:41.989Z,96478.47
2019-04-22T14:51:06.093Z,96473.91
2019-04-22T14:53:39.369Z,96473.91
2019-04-22T14:55:50.504Z,96470.50
2019-04-22T14:58:24.696Z,96467.95
2019-04-22T15:00:56.930Z,96467.95
2019-04-22T15:03:33.412Z,96460.89
2019-04-22T15:06:04.259Z,96455.88
2019-04-22T15:08:35.053Z,96455.88
2019-04-22T15:11:08.763Z,96460.55
2019-04-22T15:13:39.111Z,96460.55
2019-04-22T15:16:34.408Z,96456.48
2019-04-22T15:19:12.079Z,96447.56
2019-04-22T15:21:43.009Z,96436.79
2019-04-22T15:24:29.433Z,96436.79
2019-04-22T15:27:10.980Z,96435.34
2019-04-22T15:29:41.149Z,96435.34
2019-04-22T15:32:11.779Z,96431.45
2019-04-22T15:34:41.611Z,96435.19
2019-04-22T15:37:11.938Z,96435.30
2019-04-22T15:39:41.615Z,96436.44
2019-04-22T15:42:19.848Z,96436.44
2019-04-22T15:44:44.193Z,96425.75
2019-04-22T15:47:15.104Z,96435.67
2019-04-22T15:49:45.878Z,96435.67
2019-04-22T15:52:16.674Z,96424.83
2019-04-22T15:54:49.951Z,96424.05
2019-04-22T15:57:17.702Z,96424.05
2019-04-22T16:00:02.315Z,96428.15
2019-04-22T16:02:19.516Z,96421.20
2019-04-22T16:04:50.629Z,96419.66
2019-04-22T16:07:22.393Z,96409.69
2019-04-22T16:09:51.922Z,96410.61
2019-04-22T16:12:28.656Z,96421.14
2019-04-22T16:14:56.841Z,96409.76
2019-04-22T16:17:24.400Z,96411.28
2019-04-22T16:19:55.267Z,96411.23
2019-04-22T16:22:25.559Z,96417.92
2019-04-22T16:25:15.278Z,96413.91
2019-04-22T16:27:46.436Z,96407.91
2019-04-22T16:30:17.255Z,96409.69
2019-04-22T16:32:49.475Z,96402.17
2019-04-22T16:35:18.902Z,96398.87
2019-04-22T16:37:48.618Z,96392.96
2019-04-22T16:40:25.014Z,96392.96
2019-04-22T16:43:00.951Z,96400.13
2019-04-22T16:45:31.647Z,96398.59
2019-04-22T16:48:02.169Z,96403.56
2019-04-22T16:50:35.018Z,96396.85
2019-04-22T16:53:06.045Z,96396.85
2019-04-22T16:55:36.907Z,96401.52
2019-04-22T16:58:10.495Z,96397.95
2019-04-22T17:00:44.868Z,96397.78
2019-04-22T17:03:52.334Z,96398.47
2019-04-22T17:06:35.309Z,96398.47
2019-04-22T17:09:06.746Z,96395.06
2019-04-22T17:11:38.032Z,96391.55
2019-04-22T17:14:11.199Z,96391.55
2019-04-22T17:16:44.328Z,96390.45
2019-04-22T17:19:15.312Z,96394.96
2019-04-22T17:21:45.648Z,96395.06
2019-04-22T17:24:17.479Z,96395.06
2019-04-22T17:26:48.452Z,96386.86
2019-04-22T17:29:18.673Z,96386.86
2019-04-22T17:31:56.913Z,96390.77
2019-04-22T17:34:21.184Z,96389.69
2019-04-22T17:36:51.055Z,96385.27
2019-04-22T17:39:38.122Z,96385.27
2019-04-22T17:42:22.475Z,96383.82
2019-04-22T17:45:15.753Z,96386.02
2019-04-22T17:48:09.874Z,96387.47
2019-04-22T17:50:44.389Z,96386.52
2019-04-22T17:53:23.007Z,96391.13
2019-04-22T17:55:55.301Z,96391.13
2019-04-22T17:58:20.649Z,96392.59
2019-04-22T18:00:51.943Z,96392.59
2019-04-22T18:03:21.281Z,96390.23
2019-04-22T18:05:59.521Z,96396.19
2019-04-22T18:08:45.978Z,96391.56
2019-04-22T18:11:31.895Z,96397.50
2019-04-22T18:13:55.024Z,96407.45
2019-04-22T18:16:25.765Z,96411.11
2019-04-22T18:18:52.831Z,96411.11
2019-04-22T18:21:25.195Z,96411.80
2019-04-22T18:23:52.886Z,96412.58
2019-04-22T18:26:31.755Z,96409.13
2019-04-22T18:29:07.417Z,96409.13
2019-04-22T18:31:38.523Z,96402.27
2019-04-22T18:34:10.153Z,96403.70
2019-04-22T18:36:40.589Z,96401.09
2019-04-22T18:39:23.540Z,96409.63
2019-04-22T18:41:52.053Z,96407.01
2019-04-22T18:44:35.283Z,96407.01
2019-04-22T18:47:03.672Z,96409.44
2019-04-22T18:49:37.395Z,96407.50
2019-04-22T18:52:47.942Z,96409.47
2019-04-22T18:55:55.598Z,96419.52
2019-04-22T18:58:27.382Z,96419.86
2019-04-22T19:00:48.389Z,96419.86
2019-04-22T19:03:24.284Z,96416.70
2019-04-22T19:06:24.792Z,96416.70
2019-04-22T19:08:43.418Z,96425.63
2019-04-22T19:11:26.713Z,96415.83
2019-04-22T19:18:56.562Z,96416.51
2019-04-22T19:21:19.677Z,96418.89
2019-04-22T19:23:56.612Z,96422.52
2019-04-22T19:26:41.234Z,96422.52
2019-04-22T19:29:00.399Z,96419.91
2019-04-22T19:31:31.342Z,96424.44
2019-04-22T19:34:04.588Z,96425.19
2019-04-22T19:36:40.904Z,96424.13
2019-04-22T19:39:10.445Z,96420.66
2019-04-22T19:41:42.008Z,96420.66
2019-04-22T19:44:13.243Z,96419.63
2019-04-22T19:46:55.733Z,96419.63
2019-04-22T19:49:24.589Z,96426.75
2019-04-22T19:52:01.433Z,96426.75
2019-04-22T19:54:19.065Z,96427.50
2019-04-22T19:56:40.239Z,96427.50
2019-04-22T19:59:23.525Z,96425.75
2019-04-22T20:02:28.608Z,96425.75
2019-04-22T20:05:19.869Z,96428.55
2019-04-22T20:07:45.827Z,96428.19
2019-04-22T20:10:25.136Z,96432.28
2019-04-22T20:13:07.635Z,96432.28
2019-04-22T20:15:30.323Z,96425.66
2019-04-22T20:18:31.674Z,96424.61
2019-04-22T20:20:46.567Z,96422.66
2019-04-22T20:23:14.273Z,96426.62
2019-04-22T20:25:54.610Z,96422.84
2019-04-22T20:28:39.183Z,96422.84
2019-04-22T20:31:08.415Z,96423.27
2019-04-22T20:33:48.188Z,96422.51
2019-04-22T20:36:36.403Z,96420.32
2019-04-22T20:38:39.975Z,96415.89
2019-04-22T20:41:15.008Z,96424.12
2019-04-22T20:43:52.536Z,96408.02
2019-04-22T20:46:22.376Z,96408.02
2019-04-22T20:48:56.866Z,96421.45
2019-04-22T20:51:38.980Z,96406.17
2019-04-22T20:54:05.547Z,96401.91
2019-04-22T20:56:31.501Z,96405.87
2019-04-22T20:59:04.581Z,96399.77
2019-04-22T21:01:36.889Z,96397.44
2019-04-22T21:03:57.666Z,96386.06
2019-04-22T21:06:44.268Z,96387.17
2019-04-22T21:09:18.357Z,96386.78
2019-04-22T21:11:46.767Z,96386.78
2019-04-22T21:14:17.152Z,96388.39
2019-04-22T21:16:53.267Z,96388.86
2019-04-22T21:19:27.691Z,96377.92
2019-04-22T21:22:02.004Z,96377.92
2019-04-22T21:24:29.384Z,96376.03
2019-04-22T21:27:06.134Z,96378.32
2019-04-22T21:29:33.657Z,96378.32
2019-04-22T21:32:09.075Z,96374.20
2019-04-22T21:34:43.669Z,96374.20
2019-04-22T21:37:20.314Z,96370.37
2019-04-22T21:39:44.759Z,96358.58
2019-04-22T21:42:24.985Z,96358.58
2019-04-22T21:44:49.713Z,96365.03
2019-04-22T21:47:36.172Z,96359.70
2019-04-22T21:50:21.390Z,96360.86
2019-04-22T21:52:33.231Z,96358.30
2019-04-22T21:55:14.488Z,96358.30
2019-04-22T21:58:04.833Z,96361.17
2019-04-22T22:03:10.908Z,96367.39
2019-04-22T22:05:28.455Z,96367.39
2019-04-22T22:07:56.843Z,96359.03
2019-04-22T22:10:43.440Z,96359.03
2019-04-22T22:13:13.839Z,96361.40
2019-04-22T22:15:46.590Z,96361.40
2019-04-22T22:18:16.433Z,96357.53
2019-04-22T22:20:53.792Z,96348.02
2019-04-22T22:23:28.889Z,96350.06
2019-04-22T22:25:50.751Z,96344.58
2019-04-22T22:28:33.420Z,96344.58
2019-04-22T22:31:17.113Z,96347.16
2019-04-22T22:33:26.911Z,96347.16
2019-04-22T22:35:58.370Z,96339.77
2019-04-22T22:38:27.333Z,96330.20
2019-04-22T22:40:45.958Z,96330.20
2019-04-22T22:43:25.968Z,96321.36
2019-04-22T22:46:00.788Z,96321.36
2019-04-22T22:48:48.133Z,96321.86
2019-04-22T22:51:15.057Z,96318.28
2019-04-22T22:54:06.345Z,96319.35
2019-04-22T22:56:18.799Z,96318.18
2019-04-22T22:58:52.480Z,96318.47
2019-04-22T23:01:28.698Z,96316.73
2019-04-22T23:06:32.942Z,96312.95
2019-04-22T23:09:01.906Z,96307.06
2019-04-22T23:11:45.718Z,96311.94
2019-04-22T23:14:02.535Z,96311.94
2019-04-22T23:16:22.030Z,96305.66
2019-04-22T23:19:02.104Z,96302.12
2019-04-22T23:21:39.119Z,96290.06
2019-04-22T23:24:22.723Z,96280.98
2019-04-22T23:27:11.724Z,96276.95
2019-04-22T23:30:01.727Z,96276.95
2019-04-22T23:32:31.789Z,96258.86
2019-04-22T23:35:22.635Z,96258.86
2019-04-22T23:37:52.638Z,96262.27
2019-04-22T23:40:32.563Z,96260.09
2019-04-22T23:43:05.480Z,96247.29
2019-04-22T23:45:34.789Z,96247.29
2019-04-22T23:48:01.206Z,96249.34
2019-04-22T23:50:41.246Z,96241.11
2019-04-22T23:53:46.043Z,96241.11
2019-04-22T23:56:00.530Z,96239.48
2019-04-22T23:58:47.659Z,96239.48
